createdAt,value
2022-11-05T00:03:13.454Z,100230.06
2022-11-05T00:10:04.794Z,100222.44
2022-11-05T00:16:52.766Z,100221.81
2022-11-05T00:23:50.679Z,100241.13
2022-11-05T00:30:36.087Z,100252.50
2022-11-05T00:37:24.079Z,100245.72
2022-11-05T00:44:21.927Z,100266.66
2022-11-05T00:51:07.579Z,100266.31
2022-11-05T00:57:55.740Z,100252.25
2022-11-05T01:04:41.097Z,100286.81
2022-11-05T01:18:51.573Z,100288.94
2022-11-05T01:25:36.951Z,100297.59
2022-11-05T01:32:22.306Z,100308.16
2022-11-05T01:39:10.302Z,100300.38
2022-11-05T01:45:59.690Z,100315.38
2022-11-05T01:52:45.245Z,100320.72
2022-11-05T01:59:39.098Z,100327.09
2022-11-05T02:06:25.353Z,100335.56
2022-11-05T02:13:11.116Z,100341.75
2022-11-05T02:20:35.477Z,100339.16
2022-11-05T02:27:33.836Z,100339.34
2022-11-05T02:34:31.526Z,100347.78
2022-11-05T02:41:27.272Z,100336.06
2022-11-05T02:48:23.996Z,100352.19
2022-11-05T02:55:22.470Z,100359.00
2022-11-05T03:02:09.473Z,100361.56
2022-11-05T03:09:15.217Z,100365.16
2022-11-05T03:16:09.314Z,100380.91
2022-11-05T03:23:03.830Z,100381.56
2022-11-05T03:29:54.970Z,100395.06
2022-11-05T03:36:49.180Z,100402.34
2022-11-05T03:43:40.024Z,100404.50
2022-11-05T04:04:15.690Z,100436.03
2022-11-05T04:11:13.644Z,100443.31
2022-11-05T04:18:00.135Z,100441.84
2022-11-05T04:24:49.236Z,100437.94
2022-11-05T04:31:34.564Z,100438.25
2022-11-05T04:38:22.234Z,100460.53
2022-11-05T04:45:10.870Z,100428.34
2022-11-05T04:51:56.237Z,100473.03
2022-11-05T04:58:45.618Z,100475.50
2022-11-05T05:05:33.743Z,100481.16
2022-11-05T05:12:19.207Z,100476.66
2022-11-05T05:19:04.567Z,100486.19
2022-11-05T05:25:52.671Z,100494.63
2022-11-05T05:32:38.030Z,100498.56
2022-11-05T05:39:23.368Z,100498.53
2022-11-05T05:46:15.066Z,100414.19
2022-11-05T05:53:00.828Z,100514.75
2022-11-05T05:59:46.143Z,100537.50
2022-11-05T06:06:34.564Z,100526.94
2022-11-05T06:13:19.940Z,100562.50
2022-11-05T06:20:05.395Z,100566.06
2022-11-05T06:26:53.608Z,100486.03
2022-11-05T06:33:39.096Z,100577.25
2022-11-05T06:40:24.435Z,100589.91
2022-11-05T06:47:12.372Z,100583.53
2022-11-05T06:53:58.533Z,100601.75
2022-11-05T07:00:44.274Z,100629.69
2022-11-05T07:07:32.539Z,100627.78
2022-11-05T07:14:17.838Z,100642.56
2022-11-05T07:21:03.163Z,100656.34
2022-11-05T07:27:51.084Z,100669.47
2022-11-05T07:34:36.495Z,100679.66
2022-11-05T07:41:21.894Z,100683.22
2022-11-05T07:48:10.589Z,100677.41
2022-11-05T07:54:55.920Z,100697.59
2022-11-05T08:01:41.464Z,100704.84
2022-11-05T08:08:29.800Z,100713.59
2022-11-05T08:15:15.149Z,100720.88
2022-11-05T08:22:00.463Z,100730.75
2022-11-05T08:28:48.673Z,100734.97
2022-11-05T08:35:34.401Z,100748.56
2022-11-05T08:42:19.805Z,100758.09
2022-11-05T08:49:08.159Z,100756.84
2022-11-05T08:55:53.523Z,100758.53
2022-11-05T09:02:38.989Z,100761.28
2022-11-05T09:09:26.945Z,100751.88
2022-11-05T09:16:22.232Z,100759.25
2022-11-05T09:23:07.745Z,100763.25
2022-11-05T09:29:55.831Z,100760.91
2022-11-05T09:36:41.380Z,100770.25
2022-11-05T09:43:36.769Z,100773.81
2022-11-05T09:50:35.658Z,100766.34
2022-11-05T09:57:26.423Z,100779.56
2022-11-05T10:04:22.535Z,100785.16
2022-11-05T10:11:16.558Z,100783.03
2022-11-05T10:18:07.916Z,100800.94
2022-11-05T10:24:55.099Z,100803.53
2022-11-05T10:31:43.772Z,100787.72
2022-11-05T10:38:29.251Z,100827.41
2022-11-05T10:45:30.435Z,100805.28
2022-11-05T10:52:25.675Z,100825.81
2022-11-05T10:59:26.497Z,100786.06
2022-11-05T11:06:24.807Z,100827.19
2022-11-05T11:13:23.714Z,100820.84
2022-11-05T11:20:25.356Z,100822.31
2022-11-05T11:27:16.615Z,100816.81
2022-11-05T11:34:10.059Z,100813.19
2022-11-05T11:41:08.914Z,100799.06
2022-11-05T11:47:54.502Z,100801.34
2022-11-05T11:54:43.158Z,100793.19
2022-11-05T12:02:16.225Z,100803.31
2022-11-05T12:09:11.014Z,100805.59
2022-11-05T12:16:03.204Z,100787.69
2022-11-05T12:23:14.984Z,100801.19
2022-11-05T12:30:07.930Z,100780.88
2022-11-05T12:37:27.260Z,100789.66
2022-11-05T12:44:31.775Z,100785.44
2022-11-05T12:51:41.428Z,100787.56
2022-11-05T12:58:35.670Z,100794.06
2022-11-05T13:05:28.874Z,100792.59
2022-11-05T13:12:17.493Z,100774.38
2022-11-05T13:19:16.164Z,100785.94
2022-11-05T13:26:19.507Z,100800.25
2022-11-05T13:33:09.106Z,100786.25
2022-11-05T13:40:04.594Z,100788.38
2022-11-05T13:47:20.618Z,100785.75
2022-11-05T13:54:41.136Z,100797.00
2022-11-05T14:01:52.854Z,100787.38
2022-11-05T14:08:45.831Z,100798.63
2022-11-05T14:15:33.375Z,100792.44
2022-11-05T14:22:43.992Z,100813.63
2022-11-05T14:29:41.798Z,100818.16
2022-11-05T14:36:40.013Z,100803.59
2022-11-05T14:43:30.824Z,100819.78
2022-11-05T14:50:24.257Z,100816.72
2022-11-05T14:57:09.769Z,100819.34
2022-11-05T15:04:21.163Z,100815.13
2022-11-05T15:11:16.425Z,100736.28
2022-11-05T15:18:08.960Z,100832.97
2022-11-05T15:24:57.795Z,100821.75
2022-11-05T15:31:45.386Z,100803.84
2022-11-05T15:38:36.722Z,100810.88
2022-11-05T15:45:27.779Z,100821.94
2022-11-05T15:52:16.715Z,100835.91
2022-11-05T15:59:05.061Z,100744.59
2022-11-05T16:05:53.806Z,100853.91
2022-11-05T16:12:40.351Z,100836.16
2022-11-05T16:19:40.965Z,100844.91
2022-11-05T16:27:01.401Z,100851.13
2022-11-05T16:33:48.123Z,100823.09
2022-11-05T16:40:33.540Z,100852.38
2022-11-05T16:47:22.395Z,100857.53
2022-11-05T16:54:08.170Z,100875.72
2022-11-05T17:01:08.089Z,100883.09
2022-11-05T17:07:57.200Z,100901.19
2022-11-05T17:14:43.069Z,100914.69
2022-11-05T17:21:28.851Z,100937.75
2022-11-05T17:28:18.696Z,100937.75
2022-11-05T17:35:04.121Z,100927.53
2022-11-05T17:41:50.060Z,100928.22
2022-11-05T17:48:38.533Z,100923.31
2022-11-05T17:55:23.995Z,100913.47
2022-11-05T18:02:09.516Z,100921.34
2022-11-05T18:08:58.032Z,100930.84
2022-11-05T18:15:43.800Z,100958.75
2022-11-05T18:22:29.644Z,100949.22
2022-11-05T18:29:17.850Z,100944.75
2022-11-05T18:36:03.361Z,100922.84
2022-11-05T18:42:48.747Z,100958.66
2022-11-05T18:49:36.769Z,100951.13
2022-11-05T18:56:22.258Z,100948.47
2022-11-05T19:03:08.727Z,100958.59
2022-11-05T19:09:56.891Z,100948.19
2022-11-05T19:16:42.374Z,100946.94
2022-11-05T19:23:28.203Z,100956.19
2022-11-05T19:30:16.859Z,100968.72
2022-11-05T19:37:02.456Z,100954.66
2022-11-05T19:43:48.256Z,100964.56
2022-11-05T19:50:36.692Z,100950.81
2022-11-05T19:57:22.341Z,100932.19
2022-11-05T20:04:08.725Z,100942.22
2022-11-05T20:10:59.920Z,100954.13
2022-11-05T20:17:45.315Z,100947.31
2022-11-05T20:24:30.751Z,100946.28
2022-11-05T20:31:20.842Z,100956.06
2022-11-05T20:38:06.246Z,100946.38
2022-11-05T20:44:51.612Z,100944.56
2022-11-05T20:51:39.639Z,100923.34
2022-11-05T20:58:25.095Z,100945.09
2022-11-05T21:05:11.706Z,100947.84
2022-11-05T21:12:15.006Z,100945.84
2022-11-05T21:19:00.356Z,100950.78
2022-11-05T21:25:47.679Z,100949.78
2022-11-05T21:32:35.544Z,100946.94
2022-11-05T21:39:21.995Z,100945.50
2022-11-05T21:46:08.275Z,100943.91
2022-11-05T21:53:08.743Z,100926.50
2022-11-05T21:59:56.472Z,100943.53
2022-11-05T22:06:42.163Z,100914.84
2022-11-05T22:13:30.146Z,100913.78
2022-11-05T22:20:15.767Z,100937.34
2022-11-05T22:27:02.291Z,100931.88
2022-11-05T22:33:51.057Z,100931.34
2022-11-05T22:40:36.402Z,100931.34
2022-11-05T22:47:21.769Z,100952.69
2022-11-05T22:54:11.099Z,100934.66
2022-11-05T23:00:56.489Z,100939.03
2022-11-05T23:07:54.680Z,100940.16
2022-11-05T23:14:42.642Z,100942.91
2022-11-05T23:21:40.732Z,100939.88
2022-11-05T23:28:26.103Z,100930.66
2022-11-05T23:35:15.044Z,100942.44
2022-11-05T23:42:27.858Z,100925.19
2022-11-05T23:49:13.261Z,100928.72
2022-11-05T23:56:07.547Z,100910.91
